Time;durP1;ratioP1;P1;durP2;ratioP2;P2;SDS_P1;SDS_P2;PMS_P1;PMS_P2;Temp;Humidity;BMP_temperature;BMP_pressure;BME280_temperature;BME280_humidity;BME280_pressure;Samples;Min_cycle;Max_cycle;Signal;HPM_P1;HPM_P2
2022/09/29 00:00:37;;;;;;;16.67;13.60;;;10.80;99.90;;;;;;5021460;28;20029;-71
2022/09/29 00:03:03;;;;;;;18.17;14.80;;;10.80;99.90;;;;;;5032113;28;20115;-70
2022/09/29 00:05:29;;;;;;;19.08;15.40;;;10.80;99.90;;;;;;5028340;28;20033;-71
2022/09/29 00:07:55;;;;;;;21.75;14.88;;;10.70;99.90;;;;;;5033747;28;20017;-71
2022/09/29 00:10:21;;;;;;;20.00;15.10;;;10.70;99.90;;;;;;5020512;28;20478;-71
2022/09/29 00:12:46;;;;;;;20.02;13.95;;;10.80;99.90;;;;;;5023766;28;20033;-71
2022/09/29 00:15:12;;;;;;;19.35;14.73;;;10.70;99.90;;;;;;5027606;28;20030;-71
2022/09/29 00:17:38;;;;;;;22.13;15.55;;;10.70;99.90;;;;;;5020872;28;20033;-71
2022/09/29 00:20:05;;;;;;;17.52;14.95;;;10.60;99.90;;;;;;5025940;28;20092;-71
2022/09/29 00:22:32;;;;;;;23.67;14.88;;;10.60;99.90;;;;;;5027035;28;20405;-71
2022/09/29 00:24:57;;;;;;;19.92;15.38;;;10.60;99.90;;;;;;5017682;28;20021;-71
2022/09/29 00:27:23;;;;;;;17.15;14.63;;;10.60;99.90;;;;;;5027173;28;20021;-71
2022/09/29 00:29:49;;;;;;;21.80;16.20;;;10.50;99.90;;;;;;5021537;28;20032;-71
2022/09/29 00:32:14;;;;;;;19.83;14.70;;;10.50;99.90;;;;;;5025349;28;20030;-71
2022/09/29 00:34:40;;;;;;;19.60;15.57;;;10.50;99.90;;;;;;5025719;28;20022;-71
2022/09/29 00:37:06;;;;;;;20.80;15.52;;;10.50;99.90;;;;;;5028275;28;20128;-70
2022/09/29 00:39:31;;;;;;;22.45;16.23;;;10.50;99.90;;;;;;5035303;28;20025;-71
2022/09/29 00:41:57;;;;;;;22.70;14.90;;;10.50;99.90;;;;;;5028102;28;20038;-71
2022/09/29 00:45:01;;;;;;;19.38;15.00;;;10.50;99.90;;;;;;5022427;28;20033;-70
2022/09/29 00:47:28;;;;;;;19.42;12.90;;;10.40;99.90;;;;;;5024320;28;20441;-70
2022/09/29 00:50:11;;;;;;;21.02;15.32;;;10.40;99.90;;;;;;5021833;28;20042;-71
2022/09/29 00:52:42;;;;;;;17.85;15.32;;;10.40;99.90;;;;;;5029418;28;20021;-71
2022/09/29 00:55:17;;;;;;;22.35;17.38;;;10.40;99.90;;;;;;5020011;28;20039;-71
2022/09/29 00:57:52;;;;;;;20.13;15.57;;;10.30;99.90;;;;;;5028337;28;20030;-71
2022/09/29 01:00:18;;;;;;;20.77;16.40;;;10.30;99.90;;;;;;5028659;28;20421;-71
2022/09/29 01:02:49;;;;;;;24.10;15.68;;;10.30;99.90;;;;;;5025686;28;20034;-71
2022/09/29 01:05:20;;;;;;;21.02;16.00;;;10.30;99.90;;;;;;5026309;28;20029;-71
2022/09/29 01:07:46;;;;;;;19.42;14.63;;;10.30;99.90;;;;;;5021714;28;20588;-71
2022/09/29 01:10:15;;;;;;;22.90;15.75;;;10.30;99.90;;;;;;5030623;28;20033;-71
2022/09/29 01:12:44;;;;;;;17.92;13.70;;;10.30;99.90;;;;;;5024788;28;20445;-71
2022/09/29 01:15:11;;;;;;;19.88;15.73;;;10.20;99.90;;;;;;5030875;28;20112;-71
2022/09/29 01:17:36;;;;;;;21.02;14.15;;;10.20;99.90;;;;;;5021869;28;20117;-71
2022/09/29 01:20:02;;;;;;;21.98;16.27;;;10.20;99.90;;;;;;5026667;28;20112;-71
2022/09/29 01:22:28;;;;;;;26.13;15.27;;;10.20;99.90;;;;;;5019284;28;20025;-71
2022/09/29 01:24:58;;;;;;;20.05;14.20;;;10.20;99.90;;;;;;5020857;28;20493;-71
2022/09/29 01:27:46;;;;;;;20.83;14.63;;;10.10;99.90;;;;;;5025522;28;20110;-71
2022/09/29 01:30:30;;;;;;;19.48;16.20;;;10.10;99.90;;;;;;5021841;28;20046;-70
2022/09/29 01:33:37;;;;;;;20.00;15.85;;;10.10;99.90;;;;;;5024546;28;20030;-71
2022/09/29 01:36:19;;;;;;;18.67;14.10;;;10.10;99.90;;;;;;5022984;28;20041;-71
2022/09/29 01:39:05;;;;;;;19.50;14.57;;;10.10;99.90;;;;;;5022995;28;20712;-71
2022/09/29 01:41:50;;;;;;;23.70;15.65;;;10.00;99.90;;;;;;5027274;28;20104;-71
2022/09/29 01:44:30;;;;;;;18.98;15.57;;;10.00;99.90;;;;;;5025538;28;20028;-70
2022/09/29 01:47:21;;;;;;;18.98;13.90;;;10.00;99.90;;;;;;5025926;28;20029;-71
2022/09/29 01:50:04;;;;;;;24.60;15.75;;;10.00;99.90;;;;;;5027283;28;20041;-70
2022/09/29 01:52:31;;;;;;;;;;;10.00;99.90;;;;;;5034264;28;20382;-71
2022/09/29 01:55:09;;;;;;;25.23;16.58;;;9.90;99.90;;;;;;5022586;28;19909;-71
2022/09/29 01:57:40;;;;;;;21.58;15.40;;;10.00;99.90;;;;;;5029307;28;20037;-70
2022/09/29 02:00:10;;;;;;;24.65;16.90;;;9.90;99.90;;;;;;5026155;28;20088;-70
2022/09/29 02:02:43;;;;;;;20.30;15.10;;;9.90;99.90;;;;;;5031966;28;20042;-71
2022/09/29 02:05:32;;;;;;;22.17;14.93;;;9.90;99.90;;;;;;5027648;28;20065;-70
2022/09/29 02:08:06;;;;;;;21.77;14.60;;;9.90;99.90;;;;;;5027948;28;20041;-71
2022/09/29 02:10:38;;;;;;;21.55;15.13;;;9.90;99.90;;;;;;5024987;28;20035;-71
2022/09/29 02:13:09;;;;;;;22.00;16.00;;;9.80;99.90;;;;;;5044989;28;20033;-71
2022/09/29 02:15:41;;;;;;;20.60;15.38;;;9.80;99.90;;;;;;5030993;28;20047;-70
2022/09/29 02:18:14;;;;;;;23.98;15.57;;;9.70;99.90;;;;;;5025017;28;20037;-71
2022/09/29 02:20:40;;;;;;;22.48;16.35;;;9.80;99.90;;;;;;5028421;28;20029;-71
2022/09/29 02:23:06;;;;;;;24.65;16.10;;;9.80;99.90;;;;;;5025468;28;20029;-71
2022/09/29 02:25:35;;;;;;;24.13;15.35;;;9.70;99.90;;;;;;5027307;28;20057;-71
2022/09/29 02:28:01;;;;;;;20.10;16.17;;;9.70;99.90;;;;;;5031509;28;20028;-70
2022/09/29 02:30:26;;;;;;;21.88;16.75;;;9.60;99.90;;;;;;5027853;28;20650;-71
2022/09/29 02:32:52;;;;;;;21.05;16.38;;;9.60;99.90;;;;;;5028619;28;20080;-70
2022/09/29 02:35:18;;;;;;;23.23;17.88;;;9.60;99.90;;;;;;5030895;28;20513;-71
2022/09/29 02:37:57;;;;;;;23.73;17.33;;;9.60;99.90;;;;;;5025389;28;20114;-70
2022/09/29 02:40:50;;;;;;;25.23;18.08;;;9.60;99.90;;;;;;5027122;28;20095;-71
2022/09/29 02:43:34;;;;;;;22.15;15.88;;;9.60;99.90;;;;;;5029368;28;20490;-70
2022/09/29 02:46:20;;;;;;;22.77;17.17;;;9.60;99.90;;;;;;5029511;28;20486;-70
2022/09/29 02:48:50;;;;;;;25.17;17.67;;;9.60;99.90;;;;;;5022289;28;20072;-71
2022/09/29 02:51:34;;;;;;;22.05;18.60;;;9.50;99.90;;;;;;5031871;28;20021;-71
2022/09/29 02:54:24;;;;;;;19.13;16.33;;;9.50;99.90;;;;;;5027924;28;20038;-70
2022/09/29 02:57:07;;;;;;;22.95;17.65;;;9.50;99.90;;;;;;5030674;28;20042;-70
2022/09/29 02:59:42;;;;;;;28.33;19.10;;;9.50;99.90;;;;;;5024290;28;20032;-70
2022/09/29 03:02:07;;;;;;;22.42;17.75;;;9.50;99.90;;;;;;5026148;28;20165;-70
2022/09/29 03:04:33;;;;;;;26.38;18.40;;;9.40;99.90;;;;;;5021798;28;20120;-70
2022/09/29 03:06:58;;;;;;;22.70;17.50;;;9.40;99.90;;;;;;5027612;28;20040;-70
2022/09/29 03:09:24;;;;;;;21.88;16.90;;;9.40;99.90;;;;;;5025098;28;20029;-70
2022/09/29 03:11:50;;;;;;;23.17;16.67;;;9.40;99.90;;;;;;5028229;28;20073;-70
2022/09/29 03:14:15;;;;;;;23.15;17.30;;;9.40;99.90;;;;;;5027210;28;20037;-70
2022/09/29 03:16:42;;;;;;;22.33;16.50;;;9.40;99.90;;;;;;5028578;28;20033;-70
2022/09/29 03:19:08;;;;;;;21.13;15.38;;;9.40;99.90;;;;;;5030000;28;20439;-70
2022/09/29 03:21:34;;;;;;;20.90;15.75;;;9.30;99.90;;;;;;5023515;28;20108;-70
2022/09/29 03:24:00;;;;;;;27.17;15.73;;;9.40;99.90;;;;;;5031280;28;20100;-70
2022/09/29 03:26:26;;;;;;;24.33;14.25;;;9.30;99.90;;;;;;5021628;28;20378;-70
2022/09/29 03:28:52;;;;;;;22.60;15.77;;;9.30;99.90;;;;;;5029234;28;20035;-71
2022/09/29 03:31:18;;;;;;;19.17;13.98;;;9.30;99.90;;;;;;5018246;28;20096;-70
2022/09/29 03:33:44;;;;;;;23.55;13.25;;;9.30;99.90;;;;;;5029059;28;20053;-71
2022/09/29 03:36:10;;;;;;;19.92;14.98;;;9.30;99.90;;;;;;5032358;28;20052;-70
2022/09/29 03:38:37;;;;;;;22.13;14.18;;;9.30;99.90;;;;;;5032156;28;20417;-70
2022/09/29 03:41:04;;;;;;;27.05;15.27;;;9.30;99.90;;;;;;5028192;28;20079;-70
2022/09/29 03:43:30;;;;;;;24.42;16.05;;;9.30;99.90;;;;;;5028927;28;20021;-70
2022/09/29 03:45:56;;;;;;;22.67;16.08;;;9.20;99.90;;;;;;5029759;28;20418;-70
2022/09/29 03:48:22;;;;;;;25.60;15.27;;;9.20;99.90;;;;;;5032281;28;20026;-70
2022/09/29 03:50:50;;;;;;;24.08;15.57;;;9.20;99.90;;;;;;5023438;28;20036;-70
2022/09/29 03:53:17;;;;;;;18.40;15.18;;;9.20;99.90;;;;;;5031810;28;20017;-70
2022/09/29 03:55:46;;;;;;;23.20;15.07;;;9.10;99.90;;;;;;5026914;28;20032;-70
2022/09/29 03:58:12;;;;;;;24.88;14.65;;;9.10;99.90;;;;;;5025695;28;20034;-70
2022/09/29 04:00:38;;;;;;;21.67;14.57;;;9.10;99.90;;;;;;5026110;28;20108;-70
2022/09/29 04:03:04;;;;;;;21.80;14.77;;;9.10;99.90;;;;;;5030372;28;20029;-70
2022/09/29 04:05:29;;;;;;;18.08;14.43;;;9.10;99.90;;;;;;5025487;28;20025;-71
2022/09/29 04:07:55;;;;;;;23.60;14.25;;;9.00;99.90;;;;;;5025620;28;20029;-70
2022/09/29 04:10:21;;;;;;;18.83;14.95;;;9.00;99.90;;;;;;5029559;28;20065;-70
2022/09/29 04:12:47;;;;;;;19.20;14.02;;;9.00;99.90;;;;;;5026639;28;20028;-69
2022/09/29 04:15:13;;;;;;;22.15;13.82;;;8.90;99.90;;;;;;5028109;28;20432;-70
2022/09/29 04:17:39;;;;;;;19.08;14.95;;;8.90;99.90;;;;;;5029037;28;20052;-70
2022/09/29 04:20:06;;;;;;;20.38;14.57;;;8.90;99.90;;;;;;5026361;28;20466;-70
2022/09/29 04:22:32;;;;;;;22.55;14.15;;;9.00;99.90;;;;;;5025261;28;20060;-69
2022/09/29 04:24:58;;;;;;;18.02;14.68;;;8.90;99.90;;;;;;5028091;28;20678;-70
2022/09/29 04:27:24;;;;;;;21.55;15.18;;;8.90;99.90;;;;;;5026272;28;20067;-70
2022/09/29 04:29:50;;;;;;;20.55;14.23;;;8.90;99.90;;;;;;5031088;28;20025;-70
2022/09/29 04:32:15;;;;;;;19.65;13.95;;;8.90;99.90;;;;;;5020987;28;20022;-70
2022/09/29 04:34:41;;;;;;;18.77;13.48;;;8.90;99.90;;;;;;5026308;28;20175;-70
2022/09/29 04:37:11;;;;;;;19.20;13.63;;;8.90;99.90;;;;;;5025914;28;20049;-70
2022/09/29 04:39:37;;;;;;;23.17;14.05;;;8.80;99.90;;;;;;5025355;28;20414;-70
2022/09/29 04:42:03;;;;;;;20.52;14.65;;;8.80;99.90;;;;;;5025735;28;20106;-70
2022/09/29 04:44:28;;;;;;;22.35;14.52;;;8.80;99.90;;;;;;5025489;28;20482;-70
2022/09/29 04:46:54;;;;;;;22.42;14.00;;;8.80;99.90;;;;;;5027112;28;20032;-70
2022/09/29 04:49:20;;;;;;;21.55;14.43;;;8.80;99.90;;;;;;5029376;28;20405;-70
2022/09/29 04:51:46;;;;;;;24.35;14.23;;;8.80;99.90;;;;;;5029405;28;20030;-70
2022/09/29 04:54:12;;;;;;;17.60;14.07;;;8.70;99.90;;;;;;5021794;28;20029;-70
2022/09/29 04:56:38;;;;;;;18.35;13.13;;;8.70;99.90;;;;;;5023755;28;20022;-70
2022/09/29 04:59:03;;;;;;;20.77;14.52;;;8.60;99.90;;;;;;5024759;28;20037;-70
2022/09/29 05:01:29;;;;;;;20.20;14.48;;;8.60;99.90;;;;;;5030788;28;20496;-70
2022/09/29 05:03:55;;;;;;;19.50;13.90;;;8.60;99.90;;;;;;5019535;28;20033;-70
2022/09/29 05:06:21;;;;;;;18.05;14.07;;;8.60;99.90;;;;;;5027868;28;20041;-70
2022/09/29 05:08:46;;;;;;;21.70;15.23;;;8.60;99.90;;;;;;5021796;28;20025;-70
2022/09/29 05:11:12;;;;;;;22.20;13.85;;;8.50;99.90;;;;;;5028536;28;20022;-70
2022/09/29 05:13:38;;;;;;;18.55;14.77;;;8.50;99.90;;;;;;5028886;28;20037;-70
2022/09/29 05:16:04;;;;;;;26.35;13.70;;;8.50;99.90;;;;;;5014875;28;20042;-70
2022/09/29 05:18:30;;;;;;;21.83;13.15;;;8.50;99.90;;;;;;5023147;28;20042;-70
2022/09/29 05:21:02;;;;;;;21.60;14.27;;;8.40;99.90;;;;;;5023512;28;20045;-70
2022/09/29 05:23:28;;;;;;;19.45;14.15;;;8.40;99.90;;;;;;5021140;28;20034;-70
2022/09/29 05:25:53;;;;;;;25.52;15.73;;;8.30;99.90;;;;;;5026172;28;20105;-70
2022/09/29 05:28:19;;;;;;;22.95;14.68;;;8.40;99.90;;;;;;5022865;28;20022;-70
2022/09/29 05:30:45;;;;;;;24.90;14.40;;;8.40;99.90;;;;;;5031086;28;20030;-70
2022/09/29 05:33:10;;;;;;;21.90;14.35;;;8.30;99.90;;;;;;5024103;28;20104;-70
2022/09/29 05:35:36;;;;;;;25.02;16.00;;;8.30;99.90;;;;;;5018814;28;20038;-70
2022/09/29 05:38:01;;;;;;;21.02;15.65;;;8.30;99.90;;;;;;5025463;28;20390;-70
2022/09/29 05:40:27;;;;;;;23.20;15.57;;;8.30;99.90;;;;;;5027225;28;20477;-70
2022/09/29 05:42:53;;;;;;;20.02;14.27;;;8.30;99.90;;;;;;5029177;28;20025;-70
2022/09/29 05:45:19;;;;;;;18.10;14.20;;;8.30;99.90;;;;;;5022439;28;20026;-70
2022/09/29 05:47:44;;;;;;;22.13;14.95;;;8.20;99.90;;;;;;5028242;28;20544;-70
2022/09/29 05:50:13;;;;;;;24.30;13.63;;;8.20;99.90;;;;;;5019857;28;20040;-70
2022/09/29 05:52:39;;;;;;;16.63;12.85;;;8.30;99.90;;;;;;5035386;28;20021;-70
2022/09/29 05:55:08;;;;;;;22.58;13.52;;;8.20;99.90;;;;;;5047486;28;20596;-69
2022/09/29 05:57:34;;;;;;;22.75;13.50;;;8.30;99.90;;;;;;5034908;28;20052;-70
2022/09/29 06:00:00;;;;;;;25.40;15.18;;;8.20;99.90;;;;;;5035474;28;20378;-69
2022/09/29 06:02:26;;;;;;;19.70;14.35;;;8.20;99.90;;;;;;5034506;28;20029;-70
2022/09/29 06:04:51;;;;;;;25.05;14.85;;;8.20;99.90;;;;;;5034984;28;20030;-70
2022/09/29 06:07:17;;;;;;;24.25;16.30;;;8.30;99.90;;;;;;5034582;28;20033;-70
2022/09/29 06:09:43;;;;;;;27.10;16.27;;;8.30;99.90;;;;;;5034869;28;20434;-70
2022/09/29 06:12:08;;;;;;;25.58;15.57;;;8.30;99.90;;;;;;5035097;28;20034;-69
2022/09/29 06:14:34;;;;;;;25.23;17.35;;;8.30;99.90;;;;;;5032831;28;20509;-70
2022/09/29 06:16:59;;;;;;;22.48;15.52;;;8.30;99.90;;;;;;5032350;28;20040;-71
2022/09/29 06:19:25;;;;;;;21.00;15.90;;;8.20;99.90;;;;;;5031974;28;20072;-72
2022/09/29 06:21:50;;;;;;;22.58;16.73;;;8.20;99.90;;;;;;5023858;28;20455;-72
2022/09/29 06:24:16;;;;;;;25.27;16.92;;;8.20;99.90;;;;;;5014550;28;20026;-72
2022/09/29 06:26:41;;;;;;;28.17;16.38;;;8.20;99.90;;;;;;5014749;28;20072;-72
2022/09/29 06:29:07;;;;;;;21.08;15.93;;;8.20;99.90;;;;;;5014587;28;20022;-71
2022/09/29 06:31:33;;;;;;;27.65;17.73;;;8.30;99.90;;;;;;5014088;28;20029;-71
2022/09/29 06:34:00;;;;;;;31.08;17.58;;;8.30;99.90;;;;;;5019761;28;20439;-72
2022/09/29 06:39:20;;;;;;;35.72;22.25;;;8.40;99.90;;;;;;5012560;28;20618;-72
2022/09/29 06:41:54;;;;;;;37.50;21.15;;;8.40;99.90;;;;;;5014905;28;20060;-71
2022/09/29 06:44:23;;;;;;;26.13;17.80;;;8.30;99.90;;;;;;5016718;28;20017;-72
2022/09/29 06:46:50;;;;;;;26.13;18.17;;;8.40;99.90;;;;;;5032007;28;20021;-71
2022/09/29 06:49:16;;;;;;;26.25;17.33;;;8.40;99.90;;;;;;5040614;28;20021;-72
2022/09/29 06:51:42;;;;;;;23.10;17.17;;;8.50;99.90;;;;;;5053671;28;20071;-72
2022/09/29 06:54:22;;;;;;;29.02;19.05;;;8.60;99.90;;;;;;5054218;28;20013;-72
2022/09/29 06:56:49;;;;;;;29.60;19.35;;;8.60;99.90;;;;;;5053695;28;20394;-71
2022/09/29 06:59:15;;;;;;;29.90;19.25;;;8.70;99.90;;;;;;5054436;28;20053;-72
2022/09/29 07:01:40;;;;;;;30.83;19.17;;;8.80;99.90;;;;;;5038488;28;20026;-72
2022/09/29 07:04:06;;;;;;;33.95;19.92;;;8.80;99.90;;;;;;5025658;28;20092;-73
2022/09/29 07:06:31;;;;;;;27.85;18.33;;;8.90;99.90;;;;;;5024512;28;20467;-72
2022/09/29 07:08:58;;;;;;;28.45;17.75;;;9.00;99.90;;;;;;5032452;28;20041;-72
2022/09/29 07:11:25;;;;;;;39.78;21.02;;;9.00;99.90;;;;;;5029302;28;20029;-72
2022/09/29 07:13:51;;;;;;;32.72;20.40;;;9.10;99.90;;;;;;5029792;28;20398;-71
2022/09/29 07:16:17;;;;;;;31.77;20.63;;;9.10;99.90;;;;;;5032740;28;20032;-72
2022/09/29 07:18:43;;;;;;;39.45;21.05;;;9.10;99.90;;;;;;5033207;28;20041;-72
2022/09/29 07:21:14;;;;;;;35.90;20.67;;;9.20;99.90;;;;;;5033487;28;20104;-72
2022/09/29 07:23:41;;;;;;;34.95;20.17;;;9.30;99.90;;;;;;5033894;28;20033;-72
2022/09/29 07:26:07;;;;;;;44.15;23.23;;;9.40;99.90;;;;;;5033859;28;20120;-72
2022/09/29 07:28:33;;;;;;;35.83;20.58;;;9.50;99.90;;;;;;5033998;28;20474;-72
2022/09/29 07:31:00;;;;;;;31.75;19.50;;;9.60;99.90;;;;;;5031162;28;20477;-72
2022/09/29 07:33:27;;;;;;;28.13;16.48;;;9.70;99.90;;;;;;5029626;28;20021;-72
2022/09/29 07:35:53;;;;;;;35.63;22.67;;;9.80;99.90;;;;;;5032368;28;20030;-72
2022/09/29 07:38:18;;;;;;;29.20;17.65;;;9.90;99.90;;;;;;5032312;28;20065;-73
2022/09/29 07:40:44;;;;;;;31.25;17.45;;;10.00;99.90;;;;;;5032943;28;20072;-72
2022/09/29 07:43:10;;;;;;;32.42;18.17;;;10.10;99.90;;;;;;5033327;28;20099;-73
2022/09/29 07:45:35;;;;;;;23.55;16.50;;;10.20;99.90;;;;;;5033168;28;20025;-73
2022/09/29 07:48:01;;;;;;;39.47;20.85;;;10.30;99.90;;;;;;5033272;28;20190;-73
2022/09/29 07:50:26;;;;;;;26.50;16.05;;;10.30;99.90;;;;;;5032108;28;20029;-73
2022/09/29 07:52:52;;;;;;;34.15;18.75;;;10.30;99.90;;;;;;5033138;28;20181;-73
2022/09/29 07:55:19;;;;;;;37.65;22.05;;;10.40;99.90;;;;;;5032159;28;20033;-72
2022/09/29 07:57:47;;;;;;;33.17;21.65;;;10.50;99.90;;;;;;5032863;28;20036;-73
2022/09/29 08:00:13;;;;;;;31.40;18.00;;;10.50;99.90;;;;;;5032116;28;20025;-73
2022/09/29 08:02:38;;;;;;;28.48;16.95;;;10.50;99.90;;;;;;5032857;28;20074;-73
2022/09/29 08:05:04;;;;;;;25.35;15.05;;;10.60;99.90;;;;;;5033268;28;20025;-73
2022/09/29 08:07:30;;;;;;;36.97;17.10;;;10.70;99.90;;;;;;5029157;28;20475;-73
2022/09/29 08:09:56;;;;;;;30.40;17.85;;;10.80;99.90;;;;;;5012834;28;20022;-72
2022/09/29 08:12:21;;;;;;;34.58;21.08;;;10.90;99.90;;;;;;5018960;28;20036;-73
2022/09/29 08:14:48;;;;;;;28.33;14.43;;;11.00;99.90;;;;;;5032841;28;20065;-72
2022/09/29 08:17:13;;;;;;;22.63;14.90;;;11.00;99.90;;;;;;5033221;28;20041;-73
2022/09/29 08:19:39;;;;;;;24.05;13.80;;;11.20;99.90;;;;;;5032693;28;20100;-73
2022/09/29 08:22:05;;;;;;;22.60;14.80;;;11.30;99.90;;;;;;5031209;28;20072;-73
2022/09/29 08:24:30;;;;;;;20.08;13.75;;;11.40;99.90;;;;;;5032926;28;20037;-73
2022/09/29 08:26:56;;;;;;;22.83;12.77;;;11.50;99.90;;;;;;5032608;28;20017;-73
2022/09/29 08:29:22;;;;;;;24.20;13.98;;;11.50;99.90;;;;;;5032645;28;20056;-73
2022/09/29 08:31:48;;;;;;;17.38;10.50;;;11.50;99.90;;;;;;5032296;28;20068;-73
2022/09/29 08:34:14;;;;;;;15.15;11.57;;;11.50;99.90;;;;;;5032873;28;20033;-73
2022/09/29 08:36:40;;;;;;;17.75;10.48;;;11.50;99.90;;;;;;5032732;28;20394;-73
2022/09/29 08:39:05;;;;;;;15.85;11.00;;;11.60;99.90;;;;;;5031835;28;20032;-73
2022/09/29 08:41:40;;;;;;;19.40;12.85;;;11.70;99.90;;;;;;5032404;28;20028;-73
2022/09/29 08:44:10;;;;;;;18.13;11.43;;;11.80;99.90;;;;;;5031695;28;20033;-73
2022/09/29 08:46:44;;;;;;;17.80;10.27;;;11.70;99.90;;;;;;5032399;28;20026;-73
2022/09/29 08:49:27;;;;;;;23.48;11.35;;;11.80;99.90;;;;;;5012438;28;20022;-73
2022/09/29 08:52:03;;;;;;;20.33;11.52;;;11.80;99.90;;;;;;5010800;28;20471;-73
2022/09/29 08:54:41;;;;;;;19.33;11.98;;;11.90;99.90;;;;;;5011720;28;20053;-73
2022/09/29 08:57:16;;;;;;;20.65;11.90;;;12.00;99.90;;;;;;5011712;28;20037;-73
2022/09/29 08:59:42;;;;;;;21.73;12.00;;;12.10;99.90;;;;;;5011328;28;20022;-73
2022/09/29 09:02:39;;;;;;;14.50;9.63;;;12.20;99.90;;;;;;5014044;28;20069;-73
2022/09/29 09:05:13;;;;;;;16.00;9.55;;;12.20;99.90;;;;;;5016502;28;20022;-73
2022/09/29 09:07:52;;;;;;;21.02;11.23;;;12.20;99.90;;;;;;5031962;28;20025;-73
2022/09/29 09:10:17;;;;;;;14.48;10.20;;;12.30;99.90;;;;;;5036465;28;20470;-73
2022/09/29 09:12:57;;;;;;;18.65;11.48;;;12.30;99.90;;;;;;5035503;28;20124;-73
2022/09/29 09:15:53;;;;;;;17.40;10.63;;;12.30;99.90;;;;;;5036058;28;20025;-73
2022/09/29 09:18:34;;;;;;;18.00;11.50;;;12.40;99.90;;;;;;5035454;28;20125;-73
2022/09/29 09:21:08;;;;;;;18.23;10.40;;;12.40;99.90;;;;;;5033414;28;20100;-73
2022/09/29 09:23:53;;;;;;;16.30;9.88;;;12.50;99.90;;;;;;5035599;28;20044;-74
2022/09/29 09:26:43;;;;;;;16.60;11.15;;;12.60;99.90;;;;;;5034580;28;20030;-73
2022/09/29 09:29:47;;;;;;;20.27;12.77;;;12.90;99.90;;;;;;5028296;28;20049;-73
2022/09/29 09:32:23;;;;;;;14.18;9.43;;;13.00;99.90;;;;;;5032679;28;20069;-74
2022/09/29 09:35:05;;;;;;;14.13;9.02;;;13.10;99.90;;;;;;5033097;28;20136;-73
2022/09/29 09:37:37;;;;;;;18.77;8.90;;;13.30;99.90;;;;;;5029729;28;20046;-73
2022/09/29 09:40:13;;;;;;;13.45;8.25;;;13.50;99.90;;;;;;5032768;28;20025;-73
2022/09/29 09:42:43;;;;;;;15.98;9.30;;;13.50;99.90;;;;;;5034755;28;20053;-74
2022/09/29 09:45:15;;;;;;;13.50;8.80;;;13.60;99.90;;;;;;5032109;28;20021;-73
2022/09/29 09:47:50;;;;;;;13.23;7.77;;;13.70;99.90;;;;;;5032969;28;20043;-74
2022/09/29 09:50:18;;;;;;;14.65;8.05;;;13.90;99.90;;;;;;5033552;28;20045;-73
2022/09/29 09:52:50;;;;;;;14.35;8.43;;;14.10;99.90;;;;;;5029944;28;20028;-73
2022/09/29 09:55:19;;;;;;;14.93;8.02;;;14.30;99.90;;;;;;5034998;28;20079;-74
2022/09/29 09:58:21;;;;;;;13.80;7.45;;;14.50;99.90;;;;;;5035012;28;20030;-73
2022/09/29 10:01:05;;;;;;;12.65;7.22;;;14.60;99.90;;;;;;5034161;28;20025;-74
2022/09/29 10:03:31;;;;;;;14.60;8.57;;;14.70;99.90;;;;;;5033269;28;20029;-74
2022/09/29 10:05:58;;;;;;;14.63;7.88;;;14.90;99.90;;;;;;5034690;28;20099;-74
2022/09/29 10:08:28;;;;;;;13.98;7.35;;;14.90;99.90;;;;;;5034479;28;20478;-74
2022/09/29 10:10:55;;;;;;;15.63;7.75;;;15.10;99.90;;;;;;5033457;28;20049;-74
2022/09/29 10:13:24;;;;;;;14.02;8.52;;;15.20;99.90;;;;;;5031921;28;20065;-74
2022/09/29 10:16:12;;;;;;;16.00;9.55;;;15.10;99.90;;;;;;5034504;28;20025;-74
2022/09/29 10:18:51;;;;;;;16.55;8.50;;;15.10;99.90;;;;;;5034109;28;20037;-74
2022/09/29 10:21:42;;;;;;;14.23;8.30;;;15.10;99.90;;;;;;5033041;28;20029;-77
2022/09/29 10:24:29;;;;;;;16.08;8.32;;;15.30;99.90;;;;;;5033526;28;20393;-74
2022/09/29 10:26:58;;;;;;;14.35;8.75;;;15.40;99.90;;;;;;5033825;28;20026;-74
2022/09/29 10:29:40;;;;;;;16.33;9.10;;;15.40;99.90;;;;;;5034457;28;20116;-74
2022/09/29 10:32:20;;;;;;;14.88;8.98;;;15.30;99.90;;;;;;5032991;28;20017;-74
2022/09/29 10:35:00;;;;;;;19.52;8.98;;;15.30;99.90;;;;;;5032867;28;20049;-74
2022/09/29 10:37:41;;;;;;;17.92;8.15;;;15.30;99.90;;;;;;5030748;28;20398;-74
2022/09/29 10:40:07;;;;;;;18.83;8.43;;;15.20;99.90;;;;;;5031044;28;20068;-75
2022/09/29 10:42:40;;;;;;;14.38;9.00;;;15.00;99.90;;;;;;5033061;28;20442;-75
2022/09/29 10:45:17;;;;;;;12.98;7.55;;;14.90;99.90;;;;;;5033926;28;20063;-75
2022/09/29 10:48:12;;;;;;;19.95;10.43;;;14.90;99.90;;;;;;5022717;28;20445;-74
2022/09/29 10:50:57;;;;;;;20.83;9.98;;;14.90;99.90;;;;;;5032503;28;20069;-74
2022/09/29 10:53:38;;;;;;;13.75;7.50;;;14.80;99.90;;;;;;5032979;28;20026;-74
2022/09/29 10:56:16;;;;;;;14.13;7.28;;;14.90;99.90;;;;;;5034715;28;20022;-74
2022/09/29 10:58:51;;;;;;;15.65;7.00;;;15.20;99.90;;;;;;5034087;28;20025;-74
2022/09/29 11:01:18;;;;;;;20.40;7.85;;;15.20;99.90;;;;;;5034000;28;20389;-74
2022/09/29 11:03:51;;;;;;;13.10;7.18;;;15.10;99.90;;;;;;5034350;28;20039;-74
2022/09/29 11:06:25;;;;;;;16.35;7.53;;;15.00;99.90;;;;;;5033564;28;20019;-74
2022/09/29 11:08:59;;;;;;;11.27;6.85;;;14.90;99.90;;;;;;5031941;28;20040;-73
2022/09/29 11:11:35;;;;;;;12.55;6.90;;;14.80;99.90;;;;;;5033916;28;20030;-73
2022/09/29 11:14:01;;;;;;;13.00;6.63;;;14.70;99.90;;;;;;5034061;28;20069;-73
2022/09/29 11:16:36;;;;;;;15.80;6.78;;;14.60;99.90;;;;;;5034238;28;20612;-73
2022/09/29 11:19:12;;;;;;;14.98;7.35;;;14.50;99.90;;;;;;5032045;28;20049;-73
2022/09/29 11:21:58;;;;;;;11.73;6.93;;;14.40;99.90;;;;;;5018894;28;20033;-72
2022/09/29 11:24:50;;;;;;;17.77;8.38;;;14.30;99.90;;;;;;5013393;28;20037;-73
2022/09/29 11:28:01;;;;;;;14.27;6.95;;;14.50;99.90;;;;;;5013259;28;20505;-73
2022/09/29 11:30:52;;;;;;;9.23;5.05;;;14.90;99.90;;;;;;5013131;28;20036;-73
2022/09/29 11:33:45;;;;;;;9.02;4.25;;;15.10;99.90;;;;;;5013691;28;20026;-73
2022/09/29 11:37:18;;;;;;;3.70;2.92;;;15.40;99.90;;;;;;5012653;28;20029;-72
2022/09/29 11:40:02;;;;;;;4.03;1.60;;;15.30;99.90;;;;;;4947886;29;20594;-74
2022/09/29 11:42:49;;;;;;;3.13;1.95;;;15.20;99.90;;;;;;4953302;28;20130;-73
2022/09/29 11:45:22;;;;;;;4.93;2.30;;;15.10;99.90;;;;;;5011103;28;20048;-74
2022/09/29 11:48:09;;;;;;;7.28;2.30;;;15.20;99.90;;;;;;5032970;28;20363;-73
2022/09/29 11:50:51;;;;;;;4.22;2.78;;;15.50;99.90;;;;;;5033050;28;20425;-74
2022/09/29 11:53:37;;;;;;;4.37;2.60;;;15.70;99.90;;;;;;5031500;28;20036;-73
2022/09/29 11:56:30;;;;;;;7.57;2.60;;;15.70;99.90;;;;;;5033226;28;20068;-74
2022/09/29 11:59:26;;;;;;;7.32;3.28;;;15.90;99.90;;;;;;5033188;28;20125;-73
2022/09/29 12:02:07;;;;;;;3.25;2.35;;;16.00;99.90;;;;;;5032999;28;20128;-73
2022/09/29 12:04:54;;;;;;;4.50;2.47;;;16.20;99.90;;;;;;5032754;28;20022;-74
2022/09/29 12:07:34;;;;;;;2.58;1.90;;;16.40;99.90;;;;;;5032790;28;20033;-73
2022/09/29 12:10:12;;;;;;;3.00;2.42;;;16.50;99.90;;;;;;5032252;28;20022;-72
2022/09/29 12:12:55;;;;;;;4.28;2.00;;;16.70;99.90;;;;;;5031964;28;20079;-73
2022/09/29 12:15:32;;;;;;;6.88;2.97;;;16.80;99.90;;;;;;5033210;28;20117;-73
2022/09/29 12:18:10;;;;;;;3.85;2.60;;;17.00;99.90;;;;;;5032786;28;20033;-72
2022/09/29 12:20:41;;;;;;;4.25;2.92;;;17.20;99.90;;;;;;5033136;28;20024;-73
2022/09/29 12:23:13;;;;;;;3.75;2.50;;;16.80;99.90;;;;;;5027835;28;20493;-72
2022/09/29 12:25:50;;;;;;;3.30;2.33;;;16.80;99.90;;;;;;5018481;28;20120;-72
2022/09/29 12:28:21;;;;;;;3.03;2.17;;;17.00;99.90;;;;;;5012549;28;20022;-71
2022/09/29 12:30:55;;;;;;;5.07;2.38;;;17.20;99.90;;;;;;5012863;28;20528;-71
2022/09/29 12:34:05;;;;;;;2.97;2.15;;;17.40;99.90;;;;;;5011964;28;20057;-70
2022/09/29 12:36:43;;;;;;;6.05;2.70;;;17.50;99.90;;;;;;5009791;28;20037;-71
2022/09/29 12:39:36;;;;;;;5.80;2.45;;;17.50;99.90;;;;;;5022311;28;20041;-72
2022/09/29 12:42:17;;;;;;;3.78;2.17;;;17.30;99.90;;;;;;5013624;28;20033;-72
2022/09/29 12:45:13;;;;;;;4.10;2.00;;;17.20;99.90;;;;;;5013567;28;20026;-75
2022/09/29 12:48:12;;;;;;;4.45;2.42;;;17.10;99.90;;;;;;5028269;28;20034;-73
2022/09/29 12:50:45;;;;;;;2.58;1.80;;;17.00;99.90;;;;;;5025337;28;20057;-78
2022/09/29 12:54:02;;;;;;;4.93;1.92;;;16.90;99.90;;;;;;5017857;28;20033;-73
2022/09/29 12:56:38;;;;;;;4.70;2.58;;;16.70;99.90;;;;;;5009629;28;20040;-73
2022/09/29 12:59:22;;;;;;;2.42;1.92;;;16.80;99.90;;;;;;5023309;28;20081;-72
2022/09/29 13:01:53;;;;;;;2.00;1.58;;;17.10;99.90;;;;;;5025397;28;20014;-73
2022/09/29 13:04:48;;;;;;;3.28;1.75;;;17.20;99.90;;;;;;5032159;28;20052;-73